createdAt,value
2023-04-21T00:01:42.996Z,20.90
2023-04-21T00:07:44.904Z,21.70
2023-04-21T00:13:46.868Z,19.50
2023-04-21T00:19:48.775Z,19.47
2023-04-21T00:25:53.738Z,19.87
2023-04-21T00:31:55.758Z,24.07
2023-04-21T00:37:57.850Z,19.33
2023-04-21T00:44:04.091Z,20.97
2023-04-21T00:50:06.533Z,18.77
2023-04-21T00:56:09.076Z,19.80
2023-04-21T01:02:11.288Z,24.43
2023-04-21T01:08:14.144Z,20.70
2023-04-21T01:14:16.021Z,22.23
2023-04-21T01:20:17.932Z,19.80
2023-04-21T01:26:21.719Z,21.37
2023-04-21T01:32:27.854Z,21.83
2023-04-21T01:38:29.992Z,19.80
2023-04-21T01:44:32.285Z,22.80
2023-04-21T01:50:34.294Z,19.63
2023-04-21T01:56:36.211Z,20.20
2023-04-21T02:02:38.261Z,20.70
2023-04-21T02:08:40.325Z,17.73
2023-04-21T02:14:42.284Z,21.20
2023-04-21T02:20:44.571Z,22.40
2023-04-21T02:26:46.470Z,24.50
2023-04-21T02:32:48.382Z,20.23
2023-04-21T02:38:51.139Z,21.20
2023-04-21T02:44:53.077Z,21.70
2023-04-21T02:50:54.949Z,24.27
2023-04-21T02:56:56.971Z,23.00
2023-04-21T03:02:59.339Z,28.70
2023-04-21T03:09:01.416Z,25.60
2023-04-21T03:15:04.137Z,23.60
2023-04-21T03:21:06.174Z,22.90
2023-04-21T03:27:09.830Z,28.63
2023-04-21T03:33:12.858Z,27.70
2023-04-21T03:39:19.987Z,27.63
2023-04-21T03:45:23.817Z,25.23
2023-04-21T03:51:27.078Z,25.30
2023-04-21T03:57:28.981Z,26.43
2023-04-21T04:03:31.092Z,35.20
2023-04-21T04:09:33.356Z,27.40
2023-04-21T04:15:35.287Z,25.57
2023-04-21T04:21:37.643Z,29.10
2023-04-21T04:27:39.566Z,28.63
2023-04-21T04:33:42.705Z,26.87
2023-04-21T04:39:44.604Z,27.47
2023-04-21T04:45:46.489Z,36.43
2023-04-21T04:51:48.447Z,33.53
2023-04-21T04:57:50.406Z,27.47
2023-04-21T05:03:52.381Z,34.30
2023-04-21T05:09:54.600Z,22.37
2023-04-21T05:16:03.706Z,34.80
2023-04-21T05:22:08.652Z,26.13
2023-04-21T05:28:10.542Z,26.17
2023-04-21T05:34:12.437Z,25.53
2023-04-21T05:40:14.398Z,31.13
2023-04-21T05:46:16.361Z,26.90
2023-04-21T05:52:18.272Z,25.57
2023-04-21T05:58:20.170Z,21.80
2023-04-21T06:04:22.292Z,28.03
2023-04-21T06:10:24.724Z,27.90
2023-04-21T06:16:27.179Z,26.17
2023-04-21T06:22:29.206Z,20.03
2023-04-21T06:28:36.272Z,24.63
2023-04-21T06:34:39.380Z,22.33
2023-04-21T06:40:41.436Z,21.57
2023-04-21T06:46:43.481Z,20.00
2023-04-21T06:52:45.389Z,16.00
2023-04-21T06:58:47.275Z,19.53
2023-04-21T07:04:49.307Z,18.03
2023-04-21T07:10:51.488Z,11.33
2023-04-21T07:16:54.990Z,11.40
2023-04-21T07:22:56.964Z,12.97
2023-04-21T07:28:58.851Z,12.73
2023-04-21T07:35:02.091Z,8.70
2023-04-21T07:41:04.960Z,13.13
2023-04-21T07:47:06.906Z,7.73
2023-04-21T07:53:08.825Z,9.93
2023-04-21T07:59:10.982Z,10.90
2023-04-21T08:05:13.203Z,16.83
2023-04-21T08:11:15.338Z,8.03
2023-04-21T08:17:17.706Z,11.20
2023-04-21T08:23:20.041Z,11.60
2023-04-21T08:29:21.988Z,8.23
2023-04-21T08:35:24.518Z,8.37
2023-04-21T08:41:27.195Z,12.73
2023-04-21T08:47:29.810Z,10.10
2023-04-21T08:53:31.868Z,8.97
2023-04-21T08:59:33.786Z,7.13
2023-04-21T09:05:40.653Z,8.13
2023-04-21T09:11:44.982Z,15.27
2023-04-21T09:17:46.996Z,8.93
2023-04-21T09:23:52.095Z,9.37
2023-04-21T09:29:54.117Z,7.20
2023-04-21T09:35:56.045Z,13.93
2023-04-21T09:41:59.019Z,13.07
2023-04-21T09:48:02.436Z,8.77
2023-04-21T09:54:29.158Z,5.17
2023-04-21T10:00:32.440Z,7.93
2023-04-21T10:06:34.762Z,6.13
2023-04-21T10:12:36.706Z,10.80
2023-04-21T10:18:46.156Z,10.87
2023-04-21T10:24:48.282Z,10.30
2023-04-21T10:30:50.244Z,7.57
2023-04-21T10:36:54.800Z,6.07
2023-04-21T10:42:56.892Z,8.33
2023-04-21T10:49:13.311Z,8.20
2023-04-21T10:55:17.027Z,6.23
2023-04-21T11:01:19.234Z,13.40
2023-04-21T11:07:25.115Z,4.97
2023-04-21T11:13:34.816Z,6.60
2023-04-21T11:19:38.850Z,8.27
2023-04-21T11:25:40.937Z,5.30
2023-04-21T11:31:47.935Z,7.93
2023-04-21T11:37:54.261Z,7.33
2023-04-21T11:43:56.201Z,22.37
2023-04-21T11:50:01.511Z,9.57
2023-04-21T11:56:03.457Z,6.10
2023-04-21T12:02:05.454Z,6.50
2023-04-21T12:08:16.118Z,6.03
2023-04-21T12:14:26.926Z,6.07
2023-04-21T12:20:30.215Z,4.20
2023-04-21T12:26:32.428Z,5.07
2023-04-21T12:32:34.410Z,2.80
2023-04-21T12:38:36.463Z,7.27
2023-04-21T12:44:40.189Z,4.20
2023-04-21T12:50:42.099Z,7.00
2023-04-21T12:56:44.224Z,4.83
2023-04-21T13:02:46.697Z,4.97
2023-04-21T13:08:48.811Z,10.20
2023-04-21T13:14:50.805Z,6.13
2023-04-21T13:20:52.711Z,5.23
2023-04-21T13:26:54.665Z,10.03
2023-04-21T13:32:56.623Z,3.97
2023-04-21T13:39:00.692Z,4.70
2023-04-21T13:45:03.268Z,5.93
2023-04-21T13:51:05.504Z,6.70
2023-04-21T13:57:07.535Z,6.40
2023-04-21T14:03:11.360Z,5.17
2023-04-21T14:09:13.511Z,7.50
2023-04-21T14:15:15.489Z,3.90
2023-04-21T14:21:17.385Z,4.20
2023-04-21T14:27:19.415Z,4.50
2023-04-21T14:33:21.370Z,5.43
2023-04-21T14:39:23.769Z,3.63
2023-04-21T14:45:25.861Z,4.70
2023-04-21T14:51:28.152Z,7.33
2023-04-21T14:57:30.086Z,6.23
2023-04-21T15:03:32.121Z,10.83
2023-04-21T15:09:35.969Z,7.80
2023-04-21T15:15:38.239Z,7.30
2023-04-21T15:21:40.853Z,11.53
2023-04-21T15:27:42.810Z,10.90
2023-04-21T15:33:44.735Z,4.23
2023-04-21T15:39:46.763Z,3.77
2023-04-21T15:45:48.722Z,5.20
2023-04-21T15:51:50.810Z,9.57
2023-04-21T15:57:52.736Z,9.77
2023-04-21T16:03:54.788Z,6.07
2023-04-21T16:09:56.981Z,5.57
2023-04-21T16:15:59.164Z,7.23
2023-04-21T16:22:03.247Z,6.40
2023-04-21T16:28:06.577Z,3.30
2023-04-21T16:34:08.542Z,5.60
2023-04-21T16:40:11.479Z,6.70
2023-04-21T16:46:13.838Z,4.63
2023-04-21T16:52:15.850Z,4.80
2023-04-21T16:58:17.874Z,3.63
2023-04-21T17:04:19.811Z,5.30
2023-04-21T17:10:22.043Z,7.03
2023-04-21T17:16:24.134Z,10.23
2023-04-21T17:22:26.202Z,8.60
2023-04-21T17:28:28.142Z,5.23
2023-04-21T17:34:31.460Z,4.40
2023-04-21T17:40:33.502Z,8.73
2023-04-21T17:46:36.896Z,4.03
2023-04-21T17:52:39.921Z,4.63
2023-04-21T17:58:42.398Z,5.30
2023-04-21T18:04:44.802Z,9.30
2023-04-21T18:10:47.156Z,2.97
2023-04-21T18:16:49.025Z,3.77
2023-04-21T18:22:51.887Z,6.63
2023-04-21T18:28:58.068Z,5.10
2023-04-21T18:35:00.823Z,12.17
2023-04-21T18:41:02.869Z,4.37
2023-04-21T18:47:04.905Z,6.90
2023-04-21T18:53:08.530Z,6.77
2023-04-21T18:59:10.501Z,4.60
2023-04-21T19:05:12.374Z,7.57
2023-04-21T19:11:17.732Z,6.77
2023-04-21T19:17:19.748Z,10.23
2023-04-21T19:23:26.662Z,7.17
2023-04-21T19:29:28.788Z,9.03
2023-04-21T19:35:30.818Z,6.13
2023-04-21T19:41:32.762Z,7.10
2023-04-21T19:47:37.914Z,4.10
2023-04-21T19:53:39.835Z,3.40
2023-04-21T19:59:41.763Z,4.77
2023-04-21T20:05:45.601Z,5.07
2023-04-21T20:11:47.609Z,10.83
2023-04-21T20:17:49.962Z,3.70
2023-04-21T20:23:51.897Z,4.03
2023-04-21T20:29:53.796Z,6.20
2023-04-21T20:35:56.938Z,9.83
2023-04-21T20:42:12.634Z,6.67
2023-04-21T20:48:15.741Z,4.50
2023-04-21T20:54:17.664Z,5.93
2023-04-21T21:00:19.826Z,6.20
2023-04-21T21:06:21.766Z,8.67
2023-04-21T21:12:23.755Z,9.70
2023-04-21T21:18:25.780Z,9.17
2023-04-21T21:24:28.821Z,10.83
2023-04-21T21:30:30.771Z,4.13
2023-04-21T21:36:33.226Z,9.57
2023-04-21T21:42:35.354Z,8.83
2023-04-21T21:48:37.337Z,7.20
2023-04-21T21:54:39.251Z,8.33
2023-04-21T22:00:42.466Z,7.80
2023-04-21T22:06:45.411Z,5.00
2023-04-21T22:12:47.327Z,7.83
2023-04-21T22:18:49.402Z,5.53
2023-04-21T22:24:51.422Z,6.77
2023-04-21T22:30:53.385Z,7.70
2023-04-21T22:36:55.567Z,6.50
2023-04-21T22:42:57.941Z,8.70
2023-04-21T22:49:02.431Z,10.47
2023-04-21T22:55:05.305Z,8.67
2023-04-21T23:01:07.439Z,11.53
2023-04-21T23:07:09.702Z,12.20
2023-04-21T23:13:11.586Z,7.17
2023-04-21T23:19:13.480Z,9.23
2023-04-21T23:25:15.590Z,8.83
2023-04-21T23:31:17.642Z,8.43
2023-04-21T23:37:19.634Z,10.87
2023-04-21T23:43:21.650Z,7.53
2023-04-21T23:49:23.604Z,14.37
2023-04-21T23:55:25.979Z,8.30
